createdAt,value
2018-08-13T00:01:00.265Z,19.20
2018-08-13T00:03:27.174Z,19.10
2018-08-13T00:05:54.096Z,19.00
2018-08-13T00:08:20.959Z,18.90
2018-08-13T00:10:47.831Z,18.80
2018-08-13T00:13:14.812Z,18.70
2018-08-13T00:15:41.679Z,18.70
2018-08-13T00:18:09.480Z,18.60
2018-08-13T00:20:36.579Z,18.50
2018-08-13T00:23:03.495Z,18.50
2018-08-13T00:25:30.371Z,18.50
2018-08-13T00:27:57.435Z,18.40
2018-08-13T00:30:24.298Z,18.30
2018-08-13T00:32:51.315Z,18.20
2018-08-13T00:35:18.224Z,18.20
2018-08-13T00:37:45.079Z,18.20
2018-08-13T00:40:12.907Z,18.20
2018-08-13T00:42:39.806Z,18.10
2018-08-13T00:45:07.388Z,18.00
2018-08-13T00:47:34.252Z,18.00
2018-08-13T00:50:01.167Z,18.10
2018-08-13T00:52:28.039Z,18.10
2018-08-13T00:54:54.906Z,18.10
2018-08-13T00:57:21.847Z,18.00
2018-08-13T00:59:48.743Z,18.10
2018-08-13T01:02:15.659Z,18.10
2018-08-13T01:04:43.473Z,18.10
2018-08-13T01:07:11.034Z,18.00
2018-08-13T01:09:39.004Z,18.00
2018-08-13T01:12:05.912Z,18.10
2018-08-13T01:14:32.840Z,18.10
2018-08-13T01:16:59.783Z,18.00
2018-08-13T01:19:26.646Z,18.00
2018-08-13T01:21:53.552Z,18.10
2018-08-13T01:24:20.482Z,18.10
2018-08-13T01:26:47.387Z,18.20
2018-08-13T01:29:14.255Z,18.20
2018-08-13T01:31:41.331Z,18.10
2018-08-13T01:34:08.215Z,18.10
2018-08-13T01:36:35.123Z,18.10
2018-08-13T01:39:02.119Z,18.10
2018-08-13T01:41:29.327Z,18.00
2018-08-13T01:43:56.198Z,17.90
2018-08-13T01:46:23.098Z,17.90
2018-08-13T01:48:49.959Z,17.70
2018-08-13T01:51:16.904Z,17.60
2018-08-13T01:53:43.780Z,17.50
2018-08-13T01:56:10.908Z,17.40
2018-08-13T01:58:37.775Z,17.40
2018-08-13T02:01:04.679Z,17.30
2018-08-13T02:03:31.596Z,17.20
2018-08-13T02:05:58.534Z,17.20
2018-08-13T02:08:25.443Z,17.10
2018-08-13T02:10:52.346Z,17.10
2018-08-13T02:13:19.203Z,17.00
2018-08-13T02:15:46.114Z,17.00
2018-08-13T02:18:12.985Z,16.90
2018-08-13T02:20:39.851Z,16.80
2018-08-13T02:23:06.879Z,16.80
2018-08-13T02:25:34.320Z,16.70
2018-08-13T02:28:01.292Z,16.70
2018-08-13T02:30:28.204Z,16.60
2018-08-13T02:32:55.111Z,16.50
2018-08-13T02:35:21.980Z,16.50
2018-08-13T02:37:48.923Z,16.50
2018-08-13T02:40:15.794Z,16.50
2018-08-13T02:42:42.980Z,16.50
2018-08-13T02:45:10.679Z,16.50
2018-08-13T02:47:37.635Z,16.60
2018-08-13T02:50:04.904Z,16.60
2018-08-13T02:52:31.820Z,16.70
2018-08-13T02:54:58.694Z,16.60
2018-08-13T02:57:25.623Z,16.60
2018-08-13T02:59:52.492Z,16.70
2018-08-13T03:02:19.408Z,16.70
2018-08-13T03:04:46.357Z,16.60
2018-08-13T03:07:13.196Z,16.60
2018-08-13T03:09:40.068Z,16.50
2018-08-13T03:12:06.979Z,16.40
2018-08-13T03:14:33.852Z,16.50
2018-08-13T03:17:00.756Z,16.50
2018-08-13T03:19:27.633Z,16.40
2018-08-13T03:21:54.539Z,16.40
2018-08-13T03:24:21.439Z,16.40
2018-08-13T03:26:48.343Z,16.40
2018-08-13T03:29:15.214Z,16.40
2018-08-13T03:31:42.124Z,16.40
2018-08-13T03:34:08.990Z,16.40
2018-08-13T03:36:35.907Z,16.40
2018-08-13T03:39:04.795Z,16.40
2018-08-13T03:41:31.967Z,16.30
2018-08-13T03:43:58.883Z,16.30
2018-08-13T03:46:25.802Z,16.30
2018-08-13T03:48:52.662Z,16.20
2018-08-13T03:51:19.616Z,16.20
2018-08-13T03:53:46.824Z,16.20
2018-08-13T03:56:13.782Z,16.20
2018-08-13T03:58:40.659Z,16.20
2018-08-13T04:01:07.847Z,16.20
2018-08-13T04:03:34.762Z,16.20
2018-08-13T04:06:01.683Z,16.20
2018-08-13T04:08:28.583Z,16.20
2018-08-13T04:10:55.500Z,16.20
2018-08-13T04:13:22.367Z,16.30
2018-08-13T04:15:49.323Z,16.30
2018-08-13T04:18:16.291Z,16.40
2018-08-13T04:20:43.155Z,16.40
2018-08-13T04:23:10.057Z,16.50
2018-08-13T04:25:36.989Z,16.60
2018-08-13T04:28:04.450Z,16.70
2018-08-13T04:30:31.316Z,16.80
2018-08-13T04:32:58.236Z,16.80
2018-08-13T04:35:25.107Z,16.90
2018-08-13T04:37:51.984Z,16.90
2018-08-13T04:40:18.895Z,16.90
2018-08-13T04:42:46.739Z,17.00
2018-08-13T04:45:13.699Z,17.10
2018-08-13T04:47:42.183Z,17.10
2018-08-13T04:50:10.212Z,17.20
2018-08-13T04:52:37.390Z,17.20
2018-08-13T04:55:04.975Z,17.30
2018-08-13T04:57:31.888Z,17.40
2018-08-13T04:59:59.083Z,17.40
2018-08-13T05:02:25.967Z,17.50
2018-08-13T05:04:53.144Z,17.60
2018-08-13T05:07:20.107Z,17.70
2018-08-13T05:09:47.350Z,17.70
2018-08-13T05:12:14.444Z,17.80
2018-08-13T05:14:41.392Z,17.80
2018-08-13T05:17:08.426Z,17.90
2018-08-13T05:19:35.337Z,17.90
2018-08-13T05:22:02.532Z,18.10
2018-08-13T05:24:29.400Z,18.20
2018-08-13T05:26:56.274Z,18.30
2018-08-13T05:29:23.191Z,18.50
2018-08-13T05:31:50.104Z,18.70
2018-08-13T05:34:17.011Z,18.90
2018-08-13T05:36:43.871Z,19.00
2018-08-13T05:39:11.744Z,19.10
2018-08-13T05:41:38.655Z,19.20
2018-08-13T05:44:05.591Z,19.30
2018-08-13T05:46:32.655Z,19.40
2018-08-13T05:48:59.555Z,19.40
2018-08-13T05:51:26.523Z,19.50
2018-08-13T05:53:53.401Z,19.60
2018-08-13T05:56:20.311Z,19.60
2018-08-13T05:58:47.567Z,19.50
2018-08-13T06:01:15.323Z,19.50
2018-08-13T06:03:42.193Z,19.50
2018-08-13T06:06:09.103Z,19.80
2018-08-13T06:08:35.970Z,20.10
2018-08-13T06:11:02.903Z,20.50
2018-08-13T06:13:29.770Z,21.00
2018-08-13T06:15:56.641Z,21.60
2018-08-13T06:18:23.571Z,22.30
2018-08-13T06:20:50.443Z,22.80
2018-08-13T06:23:17.317Z,23.40
2018-08-13T06:25:44.259Z,24.00
2018-08-13T06:28:11.189Z,24.50
2018-08-13T06:30:38.107Z,25.20
2018-08-13T06:33:05.365Z,25.80
2018-08-13T06:35:32.279Z,26.30
2018-08-13T06:37:59.152Z,26.60
2018-08-13T06:40:26.067Z,26.80
2018-08-13T06:42:52.991Z,27.00
2018-08-13T06:45:19.899Z,27.50
2018-08-13T06:47:46.762Z,28.00
2018-08-13T06:50:14.107Z,28.30
2018-08-13T06:52:41.047Z,28.50
2018-08-13T06:55:08.306Z,28.80
2018-08-13T06:57:35.516Z,29.10
2018-08-13T07:00:02.803Z,29.40
2018-08-13T07:02:30.015Z,29.90
2018-08-13T07:04:57.201Z,30.30
2018-08-13T07:07:24.124Z,30.50
2018-08-13T07:09:50.996Z,31.20
2018-08-13T07:12:17.927Z,31.40
2018-08-13T07:14:44.843Z,31.70
2018-08-13T07:17:11.703Z,31.80
2018-08-13T07:19:38.612Z,32.30
2018-08-13T07:22:05.522Z,32.50
2018-08-13T07:24:32.427Z,32.80
2018-08-13T07:26:59.578Z,33.10
2018-08-13T07:29:26.442Z,33.60
2018-08-13T07:31:53.349Z,34.30
2018-08-13T07:34:20.247Z,34.80
2018-08-13T07:36:47.143Z,35.30
2018-08-13T07:39:14.068Z,35.90
2018-08-13T07:41:40.911Z,36.50
2018-08-13T07:44:08.472Z,36.70
2018-08-13T07:46:35.388Z,36.90
2018-08-13T07:49:02.436Z,37.30
2018-08-13T07:51:29.349Z,37.70
2018-08-13T07:53:56.659Z,38.00
2018-08-13T07:56:23.620Z,38.70
2018-08-13T07:58:50.635Z,38.80
2018-08-13T08:01:17.503Z,38.50
2018-08-13T08:03:44.752Z,38.30
2018-08-13T08:06:11.624Z,38.00
2018-08-13T08:08:38.518Z,38.30
2018-08-13T08:11:05.430Z,37.80
2018-08-13T08:13:32.303Z,37.30
2018-08-13T08:15:59.176Z,36.70
2018-08-13T08:18:26.086Z,36.80
2018-08-13T08:20:53.016Z,37.10
2018-08-13T08:23:27.072Z,37.80
2018-08-13T08:25:53.982Z,38.60
2018-08-13T08:28:20.851Z,39.20
2018-08-13T08:30:47.784Z,39.80
2018-08-13T08:33:14.706Z,40.80
2018-08-13T08:35:41.574Z,41.10
2018-08-13T08:38:08.448Z,40.80
2018-08-13T08:40:35.458Z,39.70
2018-08-13T08:43:02.332Z,39.10
2018-08-13T08:45:29.478Z,38.40
2018-08-13T08:47:56.940Z,37.70
2018-08-13T08:50:24.166Z,36.40
2018-08-13T08:52:51.031Z,35.40
2018-08-13T08:55:18.271Z,34.80
2018-08-13T08:57:45.789Z,34.10
2018-08-13T09:00:14.827Z,33.30
2018-08-13T09:02:41.823Z,33.00
2018-08-13T09:05:08.774Z,33.30
2018-08-13T09:07:35.753Z,34.00
2018-08-13T09:10:02.692Z,35.30
2018-08-13T09:12:29.584Z,36.30
2018-08-13T09:14:56.448Z,37.20
2018-08-13T09:17:27.995Z,38.20
2018-08-13T09:20:00.604Z,38.60
2018-08-13T09:22:33.254Z,38.90
2018-08-13T09:25:05.810Z,38.40
2018-08-13T09:27:38.723Z,36.80
2018-08-13T09:30:11.448Z,35.70
2018-08-13T09:32:43.990Z,36.00
2018-08-13T09:35:13.760Z,36.80
2018-08-13T09:37:40.638Z,36.30
2018-08-13T09:40:07.939Z,35.80
2018-08-13T09:42:34.808Z,35.40
2018-08-13T09:45:01.747Z,35.20
2018-08-13T09:47:28.607Z,35.70
2018-08-13T09:49:55.516Z,36.30
2018-08-13T09:52:22.475Z,36.60
2018-08-13T09:54:49.384Z,37.30
2018-08-13T09:57:16.276Z,38.00
2018-08-13T09:59:43.163Z,38.30
2018-08-13T10:02:10.060Z,37.80
2018-08-13T10:04:36.948Z,36.30
2018-08-13T10:07:03.786Z,34.80
2018-08-13T10:09:30.671Z,32.90
2018-08-13T10:11:57.530Z,31.00
2018-08-13T10:14:24.431Z,29.90
2018-08-13T10:16:51.369Z,29.60
2018-08-13T10:19:18.219Z,29.80
2018-08-13T10:21:45.083Z,29.70
2018-08-13T10:24:12.300Z,29.70
2018-08-13T10:26:39.208Z,29.70
2018-08-13T10:29:06.299Z,29.50
2018-08-13T10:31:33.240Z,29.10
2018-08-13T10:34:00.104Z,28.70
2018-08-13T10:36:27.024Z,28.60
2018-08-13T10:38:53.888Z,28.30
2018-08-13T10:41:20.751Z,28.10
2018-08-13T10:43:47.684Z,28.00
2018-08-13T10:46:14.543Z,27.90
2018-08-13T10:48:41.413Z,27.90
2018-08-13T10:51:08.340Z,28.10
2018-08-13T10:53:35.204Z,28.20
2018-08-13T10:56:02.107Z,27.90
2018-08-13T10:58:29.088Z,28.10
2018-08-13T11:00:56.015Z,28.00
2018-08-13T11:03:22.884Z,28.30
2018-08-13T11:05:49.755Z,29.10
2018-08-13T11:08:16.640Z,29.60
2018-08-13T11:10:43.534Z,30.10
2018-08-13T11:13:10.428Z,30.10
2018-08-13T11:20:29.721Z,30.50
2018-08-13T11:22:56.591Z,30.70
2018-08-13T11:25:23.556Z,30.00
2018-08-13T11:27:50.379Z,29.40
2018-08-13T11:30:17.431Z,28.80
2018-08-13T11:32:44.531Z,28.30
2018-08-13T11:35:11.831Z,27.70
2018-08-13T11:37:38.755Z,27.30
2018-08-13T11:40:09.050Z,27.10
2018-08-13T11:42:35.923Z,26.60
2018-08-13T11:45:02.915Z,26.40
2018-08-13T11:47:29.781Z,26.30
2018-08-13T11:49:56.695Z,26.40
2018-08-13T11:52:23.605Z,26.50
2018-08-13T11:54:50.496Z,26.40
2018-08-13T11:57:17.396Z,26.30
2018-08-13T11:59:44.351Z,26.20
2018-08-13T12:02:11.278Z,26.00
2018-08-13T12:04:38.207Z,26.00
2018-08-13T12:07:05.092Z,26.00
2018-08-13T12:09:31.960Z,25.70
2018-08-13T12:11:58.879Z,25.60
2018-08-13T12:14:25.798Z,25.50
2018-08-13T12:16:52.675Z,25.30
2018-08-13T12:19:19.568Z,25.00
2018-08-13T12:21:46.452Z,24.70
2018-08-13T12:24:13.466Z,24.50
2018-08-13T12:26:40.347Z,24.40
2018-08-13T12:29:07.275Z,24.20
2018-08-13T12:31:34.164Z,24.00
2018-08-13T12:34:01.347Z,23.70
2018-08-13T12:36:28.240Z,23.20
2018-08-13T12:38:55.112Z,22.80
2018-08-13T12:41:21.995Z,22.50
2018-08-13T12:43:48.864Z,22.30
2018-08-13T12:46:15.775Z,22.00
2018-08-13T12:48:42.747Z,21.90
2018-08-13T12:51:09.683Z,21.80
2018-08-13T12:53:36.609Z,21.60
2018-08-13T12:56:03.511Z,21.40
2018-08-13T12:58:30.375Z,21.30
2018-08-13T13:00:57.336Z,21.10
2018-08-13T13:03:24.199Z,21.20
2018-08-13T13:05:51.111Z,21.30
2018-08-13T13:08:18.088Z,21.20
2018-08-13T13:10:44.948Z,21.20
2018-08-13T13:13:11.872Z,21.20
2018-08-13T13:15:38.736Z,21.10
2018-08-13T13:18:05.746Z,21.10
2018-08-13T13:20:32.696Z,21.10
2018-08-13T13:22:59.547Z,21.30
2018-08-13T13:25:26.458Z,21.40
2018-08-13T13:27:53.563Z,21.50
2018-08-13T13:30:20.490Z,21.60
2018-08-13T13:32:47.356Z,21.60
2018-08-13T13:35:15.328Z,21.60
2018-08-13T13:37:42.240Z,21.70
2018-08-13T13:40:10.012Z,21.50
2018-08-13T13:42:37.396Z,21.50
2018-08-13T13:45:04.505Z,21.60
2018-08-13T13:47:31.399Z,21.60
2018-08-13T13:49:58.272Z,21.70
2018-08-13T13:52:25.168Z,21.70
2018-08-13T13:54:52.042Z,21.80
2018-08-13T13:57:19.007Z,21.90
2018-08-13T13:59:45.855Z,22.00
2018-08-13T14:02:12.843Z,22.30
2018-08-13T14:04:39.721Z,22.60
2018-08-13T14:07:06.603Z,23.00
2018-08-13T14:09:33.564Z,23.30
2018-08-13T14:12:00.492Z,23.50
2018-08-13T14:14:27.678Z,23.70
2018-08-13T14:16:54.834Z,23.70
2018-08-13T14:19:21.753Z,23.50
2018-08-13T14:21:48.619Z,23.40
2018-08-13T14:24:15.535Z,23.40
2018-08-13T14:26:42.412Z,23.50
2018-08-13T14:29:09.328Z,23.40
2018-08-13T14:31:36.295Z,23.40
2018-08-13T14:34:03.248Z,23.50
2018-08-13T14:36:30.115Z,23.70
2018-08-13T14:38:57.291Z,23.90
2018-08-13T14:41:24.160Z,24.10
2018-08-13T14:43:51.092Z,24.40
2018-08-13T14:46:18.035Z,24.50
2018-08-13T14:48:44.912Z,24.30
2018-08-13T14:51:11.951Z,24.60
2018-08-13T14:53:38.779Z,25.00
2018-08-13T14:56:05.927Z,25.40
2018-08-13T14:58:32.888Z,25.80
2018-08-13T15:00:59.811Z,25.90
2018-08-13T15:03:26.706Z,26.40
2018-08-13T15:05:53.728Z,26.50
2018-08-13T15:08:20.679Z,26.50
2018-08-13T15:10:47.548Z,26.50
2018-08-13T15:13:14.506Z,26.20
2018-08-13T15:15:41.400Z,25.90
2018-08-13T15:18:08.389Z,25.60
2018-08-13T15:20:35.507Z,25.50
2018-08-13T15:23:02.446Z,25.50
2018-08-13T15:25:29.603Z,25.40
2018-08-13T15:27:56.484Z,25.00
2018-08-13T15:30:23.947Z,24.50
2018-08-13T15:32:51.671Z,24.20
2018-08-13T15:35:18.770Z,23.80
2018-08-13T15:37:46.277Z,23.70
2018-08-13T15:40:13.180Z,23.60
2018-08-13T15:42:40.425Z,23.40
2018-08-13T15:45:18.612Z,23.20
2018-08-13T15:47:46.172Z,23.10
2018-08-13T15:50:14.571Z,23.10
2018-08-13T15:52:41.700Z,23.10
2018-08-13T15:55:08.651Z,23.20
2018-08-13T15:57:35.564Z,23.20
2018-08-13T16:00:02.568Z,23.10
2018-08-13T16:02:29.685Z,23.10
2018-08-13T16:04:56.555Z,23.20
2018-08-13T16:07:23.475Z,23.20
2018-08-13T16:09:50.567Z,23.20
2018-08-13T16:12:17.724Z,23.30
2018-08-13T16:14:44.631Z,23.30
2018-08-13T16:17:11.540Z,23.40
2018-08-13T16:19:38.495Z,23.40
2018-08-13T16:22:05.436Z,23.50
2018-08-13T16:24:32.727Z,23.50
2018-08-13T16:26:59.591Z,23.50
2018-08-13T16:29:26.576Z,23.60
2018-08-13T16:31:53.447Z,23.60
2018-08-13T16:34:20.541Z,23.50
2018-08-13T16:36:47.558Z,23.50
2018-08-13T16:39:14.426Z,23.70
2018-08-13T16:41:41.380Z,23.70
2018-08-13T16:44:08.247Z,23.60
2018-08-13T16:46:35.110Z,23.30
2018-08-13T16:49:02.292Z,23.20
2018-08-13T16:51:29.160Z,23.20
2018-08-13T16:53:56.425Z,23.20
2018-08-13T16:56:23.412Z,23.30
2018-08-13T16:58:50.326Z,23.30
2018-08-13T17:01:17.331Z,23.30
2018-08-13T17:03:44.330Z,23.20
2018-08-13T17:06:11.256Z,23.10
2018-08-13T17:08:38.248Z,23.00
2018-08-13T17:11:05.114Z,23.20
2018-08-13T17:13:32.004Z,23.30
2018-08-13T17:15:58.935Z,23.20
2018-08-13T17:18:25.805Z,23.20
2018-08-13T17:20:52.760Z,23.30
2018-08-13T17:23:19.668Z,23.20
2018-08-13T17:25:46.537Z,23.10
2018-08-13T17:28:13.565Z,22.90
2018-08-13T17:30:40.353Z,22.70
2018-08-13T17:33:07.495Z,22.60
2018-08-13T17:35:35.098Z,22.50
2018-08-13T17:38:02.470Z,22.40
2018-08-13T17:40:29.907Z,22.30
2018-08-13T17:42:57.020Z,22.30
2018-08-13T17:45:24.268Z,22.20
2018-08-13T17:47:51.184Z,22.30
2018-08-13T17:50:18.608Z,22.30
2018-08-13T17:52:45.483Z,22.40
2018-08-13T17:55:12.780Z,22.40
2018-08-13T17:57:39.912Z,22.30
2018-08-13T18:00:07.940Z,22.20
2018-08-13T18:02:34.883Z,22.00
2018-08-13T18:05:01.988Z,21.90
2018-08-13T18:07:28.903Z,21.80
2018-08-13T18:09:55.847Z,21.60
2018-08-13T18:12:22.714Z,21.50
2018-08-13T18:14:49.588Z,21.40
2018-08-13T18:17:16.504Z,21.40
2018-08-13T18:19:43.436Z,21.30
2018-08-13T18:22:10.353Z,21.20
2018-08-13T18:24:37.240Z,21.20
2018-08-13T18:27:04.187Z,21.20
2018-08-13T18:29:31.339Z,21.10
2018-08-13T18:31:58.415Z,21.10
2018-08-13T18:34:25.288Z,21.00
2018-08-13T18:36:52.195Z,20.90
2018-08-13T18:39:19.129Z,20.90
2018-08-13T18:41:46.092Z,20.80
2018-08-13T18:44:12.963Z,20.80
2018-08-13T18:46:39.879Z,20.80
2018-08-13T18:49:06.778Z,20.70
2018-08-13T18:51:33.703Z,20.60
2018-08-13T18:54:00.575Z,20.60
2018-08-13T18:56:27.451Z,20.50
2018-08-13T18:58:54.348Z,20.40
2018-08-13T19:01:21.220Z,20.40
2018-08-13T19:03:48.140Z,20.30
2018-08-13T19:06:15.053Z,20.30
2018-08-13T19:08:42.042Z,20.40
2018-08-13T19:11:08.912Z,20.40
2018-08-13T19:13:35.816Z,20.40
2018-08-13T19:16:02.684Z,20.40
2018-08-13T19:18:29.603Z,20.50
2018-08-13T19:20:56.514Z,20.50
2018-08-13T19:23:23.396Z,20.50
2018-08-13T19:25:50.263Z,20.50
2018-08-13T19:28:17.176Z,20.50
2018-08-13T19:30:44.052Z,20.50
2018-08-13T19:33:10.973Z,20.50
2018-08-13T19:35:37.831Z,20.50
2018-08-13T19:38:04.743Z,20.50
2018-08-13T19:40:31.659Z,20.60
2018-08-13T19:42:58.524Z,20.60
2018-08-13T19:45:25.452Z,20.60
2018-08-13T19:47:52.766Z,20.60
2018-08-13T19:50:19.641Z,20.60
2018-08-13T19:52:47.783Z,20.70
2018-08-13T19:55:15.140Z,20.70
2018-08-13T19:57:42.002Z,20.60
2018-08-13T20:00:12.032Z,20.60
2018-08-13T20:02:39.108Z,20.60
2018-08-13T20:05:06.535Z,20.60
2018-08-13T20:07:33.400Z,20.50
2018-08-13T20:10:00.284Z,20.40
2018-08-13T20:12:27.192Z,20.30
2018-08-13T20:14:54.059Z,20.10
2018-08-13T20:17:22.514Z,20.00
2018-08-13T20:19:49.435Z,19.80
2018-08-13T20:22:16.300Z,19.70
2018-08-13T20:24:43.575Z,19.60
2018-08-13T20:27:10.488Z,19.50
2018-08-13T20:29:37.631Z,19.40
2018-08-13T20:32:04.526Z,19.30
2018-08-13T20:34:31.448Z,19.20
2018-08-13T20:36:58.384Z,19.20
2018-08-13T20:39:25.287Z,19.20
2018-08-13T20:41:52.160Z,19.20
2018-08-13T20:44:19.027Z,19.20
2018-08-13T20:46:45.935Z,19.20
2018-08-13T20:49:12.835Z,19.10
2018-08-13T20:51:39.787Z,19.10
2018-08-13T20:54:07.259Z,19.10
2018-08-13T20:56:34.664Z,19.10
2018-08-13T20:59:01.924Z,19.10
2018-08-13T21:01:28.791Z,19.10
2018-08-13T21:03:55.971Z,19.00
2018-08-13T21:06:22.947Z,19.00
2018-08-13T21:08:49.819Z,18.90
2018-08-13T21:11:16.748Z,18.90
2018-08-13T21:13:43.679Z,18.80
2018-08-13T21:16:10.548Z,18.80
2018-08-13T21:18:37.422Z,18.80
2018-08-13T21:21:04.331Z,18.70
2018-08-13T21:23:31.283Z,18.60
2018-08-13T21:25:58.152Z,18.40
2018-08-13T21:28:25.020Z,18.30
2018-08-13T21:30:51.952Z,18.20
2018-08-13T21:33:18.819Z,18.10
2018-08-13T21:35:45.685Z,18.00
2018-08-13T21:38:12.608Z,18.00
2018-08-13T21:40:39.481Z,17.90
2018-08-13T21:43:06.347Z,17.90
2018-08-13T21:45:33.243Z,17.90
2018-08-13T21:48:00.112Z,17.80
2018-08-13T21:50:27.039Z,17.70
2018-08-13T21:52:53.907Z,17.70
2018-08-13T21:55:20.859Z,17.60
2018-08-13T21:57:47.854Z,17.50
2018-08-13T22:00:19.308Z,17.40
2018-08-13T22:02:46.199Z,17.40
2018-08-13T22:05:13.295Z,17.40
2018-08-13T22:07:40.207Z,17.30
2018-08-13T22:10:07.577Z,17.30
2018-08-13T22:12:34.495Z,17.40
2018-08-13T22:15:01.485Z,17.40
2018-08-13T22:17:28.452Z,17.40
2018-08-13T22:19:55.375Z,17.40
2018-08-13T22:22:22.271Z,17.40
2018-08-13T22:24:54.966Z,17.30
2018-08-13T22:27:21.911Z,17.30
2018-08-13T22:29:48.780Z,17.20
2018-08-13T22:32:15.735Z,17.20
2018-08-13T22:34:42.611Z,17.10
2018-08-13T22:37:09.806Z,17.00
2018-08-13T22:39:36.672Z,17.00
2018-08-13T22:42:03.845Z,16.90
2018-08-13T22:44:30.716Z,16.80
2018-08-13T22:46:57.626Z,16.80
2018-08-13T22:49:24.495Z,16.80
2018-08-13T22:51:51.376Z,16.70
2018-08-13T22:54:18.243Z,16.70
2018-08-13T22:56:45.155Z,16.70
2018-08-13T22:59:12.032Z,16.70
2018-08-13T23:01:38.931Z,16.70
2018-08-13T23:04:05.799Z,16.60
2018-08-13T23:06:32.687Z,16.60
2018-08-13T23:08:59.563Z,16.60
2018-08-13T23:11:26.455Z,16.60
2018-08-13T23:13:53.332Z,16.60
2018-08-13T23:16:20.224Z,16.60
2018-08-13T23:18:47.092Z,16.60
2018-08-13T23:21:14.008Z,16.60
2018-08-13T23:23:40.875Z,16.60
2018-08-13T23:26:07.771Z,16.50
2018-08-13T23:28:34.644Z,16.50
2018-08-13T23:31:01.584Z,16.50
2018-08-13T23:33:28.455Z,16.50
2018-08-13T23:35:55.348Z,16.50
2018-08-13T23:38:22.215Z,16.50
2018-08-13T23:40:49.108Z,16.50
2018-08-13T23:43:16.016Z,16.50
2018-08-13T23:45:42.922Z,16.50
2018-08-13T23:48:09.800Z,16.40
2018-08-13T23:50:36.712Z,16.40
2018-08-13T23:53:03.578Z,16.40
2018-08-13T23:55:31.682Z,16.30
2018-08-13T23:57:59.067Z,16.30
